This is the latest recevied weather packets stored in our database for station/object AG1T-20. If no packets are shown the sender has not sent any weather packets the latest 10 day(s).
| Time | Temp. | Humidity | Pressure | Rain* | Wind** | Luminosity | Snow |
|---|---|---|---|---|---|---|---|
| 1777519205 | 7.22° C | 68% | 1021.2 hPa | 0 mm | - | 0 W/m² | - |
| 1777518604 | 8.33° C | 63% | 1021.2 hPa | 0 mm | - | 0 W/m² | - |
| 1777518005 | 8.33° C | 62% | 1021.2 hPa | 0 mm | - | 0 W/m² | - |
| 1777517405 | 8.89° C | 58% | 1020.9 hPa | 0 mm | - | 0 W/m² | - |
| 1777516804 | 9.44° C | 54% | 1020.9 hPa | 0 mm | - | 0 W/m² | - |
| 1777516204 | 10° C | 51% | 1020.9 hPa | 0 mm | - | 1 W/m² | - |
| 1777515607 | 10.56° C | 49% | 1020.9 hPa | 0 mm | - | 9 W/m² | - |
| 1777515004 | 10.56° C | 48% | 1020.9 hPa | 0 mm | - | 15 W/m² | - |
| 1777514405 | 10.56° C | 49% | 1020.9 hPa | 0 mm | - | 33 W/m² | - |
| 1777513804 | 11.11° C | 47% | 1021.1 hPa | 0 mm | - | 60 W/m² | - |
| 1777513204 | 10.56° C | 49% | 1021.1 hPa | 0 mm | - | 69 W/m² | - |
| 1777512604 | 11.11° C | 47% | 1021.1 hPa | 0 mm | - | 61 W/m² | - |
| 1777512004 | 11.67° C | 48% | 1021.1 hPa | 0 mm | - | 67 W/m² | - |
| 1777511404 | 11.11° C | 51% | 1021.1 hPa | 0 mm | - | 64 W/m² | - |
| 1777510804 | 10.56° C | 48% | 1021.1 hPa | 0 mm | - | 60 W/m² | - |
| 1777510204 | 10.56° C | 54% | 1021.3 hPa | 0 mm | - | 57 W/m² | - |
| 1777509605 | 10.56° C | 56% | 1021.3 hPa | 0 mm | - | 69 W/m² | - |
| 1777509004 | 10.56° C | 56% | 1021.3 hPa | 0 mm | - | 77 W/m² | - |
| 1777508405 | 11.11° C | 53% | 1021.3 hPa | 0 mm | - | 93 W/m² | - |
| 1777507804 | 12.22° C | 43% | 1021.3 hPa | 0 mm | - | 115 W/m² | - |
| 1777507204 | 12.78° C | 39% | 1021.3 hPa | 0 mm | - | 151 W/m² | - |
| 1777506605 | 12.78° C | 39% | 1021.3 hPa | 0 mm | - | 162 W/m² | - |
| 1777506004 | 12.78° C | 38% | 1021.3 hPa | 0 mm | - | 150 W/m² | - |
| 1777505405 | 12.78° C | 36% | 1021.3 hPa | 0 mm | - | 164 W/m² | - |
| 1777504805 | 12.78° C | 38% | 1021.3 hPa | 0 mm | - | 187 W/m² | - |
* Rain latest hour (hover to see other rain measurements)
** Current wind speed in m/s (hover to see current wind gust speed)